Terminal Aerodrome Forecast
Issued by NWS Twin Cities, MN

Home | Current Version | Previous Version | Text Only | Print | Product List | Glossary Off
Versions: 1 2 3 4 5 6 7 8 9 10 11 12 13 14 15 16 17 18

326
FTUS43 KMPX 260929 AAA
TAFEAU
TAF AMD
KEAU 260929Z 2609/2706 VRB03KT 1SM BR FEW003 OVC100
     FM261000 26010KT 4SM -SHRA BR VCTS BKN050CB
     FM261200 22004KT P6SM BKN150
     FM261400 23007KT P6SM FEW250
     FM270200 VRB03KT P6SM BKN120=

USA.gov is the U.S. government's official web portal to all federal, state and local government web resources and services.